Time;durP1;ratioP1;P1;durP2;ratioP2;P2;SDS_P1;SDS_P2;PMS_P1;PMS_P2;Temp;Humidity;BMP_temperature;BMP_pressure;BME280_temperature;BME280_humidity;BME280_pressure;Samples;Min_cycle;Max_cycle;Signal;HPM_P1;HPM_P2
2023/08/21 00:00:45;;;;;;;;;6.67;6.00;;;;;25.52;65.09;100968.91;5048396;28;46484;-73
2023/08/21 00:03:10;;;;;;;;;7.00;6.33;;;;;25.53;64.99;100972.47;5048197;28;46132;-73
2023/08/21 00:05:36;;;;;;;;;7.67;7.00;;;;;25.56;65.31;100975.06;5047912;28;45650;-74
2023/08/21 00:08:02;;;;;;;;;7.00;6.33;;;;;25.59;65.23;100981.22;5049848;28;45501;-70
2023/08/21 00:10:30;;;;;;;;;5.00;4.00;;;;;25.60;64.82;100974.97;5047880;28;45442;-72
2023/08/21 00:12:55;;;;;;;;;7.00;6.67;;;;;25.56;65.10;100961.69;5048467;28;45481;-70
2023/08/21 00:15:21;;;;;;;;;6.00;6.00;;;;;25.58;65.27;100971.41;5049334;28;45410;-73
2023/08/21 00:17:47;;;;;;;;;7.00;7.00;;;;;25.53;65.38;100965.31;5047718;28;45312;-71
2023/08/21 00:20:13;;;;;;;;;7.33;6.33;;;;;25.60;65.47;100972.28;5047687;28;45952;-72
2023/08/21 00:22:38;;;;;;;;;6.33;5.00;;;;;25.59;65.26;100970.50;5049025;28;45452;-71
2023/08/21 00:25:04;;;;;;;;;6.00;6.00;;;;;25.62;65.42;100974.03;5045860;28;45410;-71
2023/08/21 00:27:30;;;;;;;;;8.00;8.00;;;;;25.63;64.98;100963.28;5048774;28;45795;-71
2023/08/21 00:29:57;;;;;;;;;6.67;6.67;;;;;25.66;65.24;100963.19;5049000;28;45330;-70
2023/08/21 00:32:23;;;;;;;;;5.00;5.00;;;;;25.68;64.72;100965.84;5046178;28;45693;-72
2023/08/21 00:34:48;;;;;;;;;6.00;6.00;;;;;25.45;65.12;100932.53;5047384;28;45426;-73
2023/08/21 00:37:14;;;;;;;;;6.00;6.00;;;;;25.61;64.91;100954.44;5048526;28;45358;-72
2023/08/21 00:39:39;;;;;;;;;8.00;6.33;;;;;25.65;65.03;100966.81;5047030;28;45491;-71
2023/08/21 00:42:07;;;;;;;;;7.00;7.00;;;;;25.60;65.25;100961.59;5049198;28;45280;-70
2023/08/21 00:44:32;;;;;;;;;6.00;6.00;;;;;25.60;65.03;100960.69;5047916;28;45339;-70
2023/08/21 00:46:58;;;;;;;;;9.33;7.00;;;;;25.61;64.42;100957.09;5047539;28;45365;-71
2023/08/21 00:49:24;;;;;;;;;5.00;5.00;;;;;25.63;64.79;100962.41;5048625;28;46151;-71
2023/08/21 00:51:51;;;;;;;;;6.00;6.00;;;;;25.62;64.82;100966.00;5046416;28;45438;-71
2023/08/21 00:54:17;;;;;;;;;6.00;5.33;;;;;25.62;65.00;100957.97;5046986;28;45470;-73
2023/08/21 00:56:43;;;;;;;;;6.67;6.00;;;;;25.63;64.89;100957.06;5058472;28;45291;-71
2023/08/21 00:59:09;;;;;;;;;6.67;6.67;;;;;25.61;64.84;100941.03;5057136;28;45480;-72
2023/08/21 01:01:36;;;;;;;;;6.67;6.00;;;;;25.68;64.98;100944.44;5058555;28;45488;-70
2023/08/21 01:04:03;;;;;;;;;5.33;5.00;;;;;25.63;65.26;100935.66;5058906;28;45485;-70
2023/08/21 01:06:29;;;;;;;;;5.00;5.00;;;;;25.70;64.84;100945.25;5059309;28;45426;-71
2023/08/21 01:09:06;;;;;;;;;4.00;4.00;;;;;25.70;64.73;100948.81;5054169;28;45260;-71
2023/08/21 01:11:42;;;;;;;;;8.00;7.33;;;;;25.66;65.04;100940.91;5039106;28;45444;-71
2023/08/21 01:14:28;;;;;;;;;6.67;6.33;;;;;25.66;65.24;100936.44;5036720;28;45380;-72
2023/08/21 01:16:58;;;;;;;;;5.00;5.00;;;;;25.59;65.37;100933.06;5038733;28;45415;-71
2023/08/21 01:19:46;;;;;;;;;6.67;5.00;;;;;25.68;65.22;100928.38;5038428;28;46150;-71
2023/08/21 01:22:11;;;;;;;;;7.33;6.00;;;;;25.69;65.41;100931.03;5038279;28;45625;-70
2023/08/21 01:24:37;;;;;;;;;6.00;6.00;;;;;25.62;65.06;100918.72;5038536;28;45359;-71
2023/08/21 01:27:03;;;;;;;;;7.33;6.33;;;;;25.62;64.98;100916.03;5038610;28;45433;-71
2023/08/21 01:29:29;;;;;;;;;5.33;5.00;;;;;25.69;65.27;100927.47;5038473;28;45470;-71
2023/08/21 01:32:21;;;;;;;;;6.00;6.00;;;;;25.70;65.58;100932.75;5038263;28;45515;-71
2023/08/21 01:34:48;;;;;;;;;7.33;7.00;;;;;25.70;65.50;100930.06;5036898;28;45476;-71
2023/08/21 01:37:15;;;;;;;;;5.00;4.00;;;;;25.71;65.58;100933.66;5038431;28;45421;-71
2023/08/21 01:39:41;;;;;;;;;8.00;6.33;;;;;25.73;65.17;100930.00;5037076;28;45390;-70
2023/08/21 01:42:06;;;;;;;;;5.00;5.00;;;;;25.70;65.28;100935.44;5038031;28;45478;-70
2023/08/21 01:44:32;;;;;;;;;6.00;6.00;;;;;25.66;65.48;100930.22;5038397;28;45341;-71
2023/08/21 01:46:58;;;;;;;;;5.67;5.00;;;;;25.68;65.35;100917.66;5038154;28;45789;-71
2023/08/21 01:49:23;;;;;;;;;6.00;6.00;;;;;25.73;65.57;100929.16;5037968;28;45988;-71
2023/08/21 01:51:49;;;;;;;;;6.00;5.33;;;;;25.70;65.41;100915.84;5037222;28;45538;-71
2023/08/21 01:54:14;;;;;;;;;7.00;6.33;;;;;25.73;65.80;100921.13;5038016;28;45367;-71
2023/08/21 01:56:40;;;;;;;;;7.00;6.00;;;;;25.73;65.29;100922.00;5037909;28;45452;-71
2023/08/21 01:59:06;;;;;;;;;5.00;5.00;;;;;25.65;65.80;100902.59;5037609;28;46131;-71
2023/08/21 02:01:33;;;;;;;;;8.00;7.33;;;;;25.72;65.75;100919.34;5038016;28;45437;-71
2023/08/21 02:03:58;;;;;;;;;6.67;6.00;;;;;25.70;65.80;100919.38;5037875;28;45313;-70
2023/08/21 02:06:24;;;;;;;;;4.67;4.67;;;;;25.64;65.87;100921.34;5037835;28;45683;-71
2023/08/21 02:08:49;;;;;;;;;4.67;4.33;;;;;25.65;66.02;100915.97;5037637;28;45480;-71
2023/08/21 02:11:15;;;;;;;;;4.33;4.00;;;;;25.65;65.77;100909.75;5037587;28;45458;-72
2023/08/21 02:13:41;;;;;;;;;6.00;6.00;;;;;25.66;65.54;100908.81;5037721;28;45355;-73
2023/08/21 02:16:07;;;;;;;;;6.00;6.00;;;;;25.68;65.62;100915.88;5037516;28;45438;-75
2023/08/21 02:18:32;;;;;;;;;5.67;5.67;;;;;25.64;66.21;100913.31;5036293;28;45555;-73
2023/08/21 02:21:00;;;;;;;;;7.00;6.00;;;;;25.63;65.96;100906.22;5036539;28;45327;-74
2023/08/21 02:23:25;;;;;;;;;4.33;4.33;;;;;25.61;65.93;100908.94;5036373;28;45337;-72
2023/08/21 02:25:51;;;;;;;;;6.00;6.00;;;;;25.58;66.48;100912.56;5036036;28;45618;-71
2023/08/21 02:28:17;;;;;;;;;7.33;6.00;;;;;25.49;66.51;100902.13;5035962;28;45603;-72
2023/08/21 02:30:43;;;;;;;;;6.00;6.00;;;;;25.44;67.08;100909.38;5035913;28;45305;-72
2023/08/21 02:33:08;;;;;;;;;4.67;4.67;;;;;25.30;67.26;100901.69;5037415;28;45558;-71
2023/08/21 02:35:34;;;;;;;;;6.00;5.33;;;;;25.31;67.44;100906.16;5037171;28;45438;-72
2023/08/21 02:38:00;;;;;;;;;7.00;5.67;;;;;25.30;67.21;100901.69;5037222;28;45213;-74
2023/08/21 02:40:25;;;;;;;;;6.00;5.00;;;;;25.28;67.66;100908.88;5037050;28;45338;-74
2023/08/21 02:42:51;;;;;;;;;6.00;6.00;;;;;25.34;67.22;100902.50;5037053;28;45434;-71
2023/08/21 02:45:16;;;;;;;;;6.00;6.00;;;;;25.42;67.42;100911.22;5037570;28;45842;-72
2023/08/21 02:47:42;;;;;;;;;8.33;6.33;;;;;25.45;66.89;100905.78;5036921;28;45957;-74
2023/08/21 02:50:09;;;;;;;;;7.67;7.67;;;;;25.44;67.43;100914.72;5035667;28;45395;-74
2023/08/21 02:52:36;;;;;;;;;6.67;5.33;;;;;25.44;67.17;100908.50;5037172;28;45589;-76
2023/08/21 02:55:03;;;;;;;;;7.00;7.00;;;;;25.43;66.90;100912.06;5035971;28;45253;-72
2023/08/21 02:57:29;;;;;;;;;7.00;6.00;;;;;25.35;67.04;100907.81;5036882;28;45309;-73
2023/08/21 02:59:55;;;;;;;;;5.00;5.00;;;;;25.31;66.99;100911.50;5036917;28;45198;-71
2023/08/21 03:02:21;;;;;;;;;4.00;4.00;;;;;25.26;66.93;100904.50;5037011;28;45450;-72
2023/08/21 03:04:48;;;;;;;;;6.33;5.33;;;;;25.21;67.06;100899.25;5037084;28;45467;-72
2023/08/21 03:07:14;;;;;;;;;5.67;5.00;;;;;25.24;67.62;100906.34;5036940;28;45613;-72
2023/08/21 03:09:40;;;;;;;;;5.00;5.00;;;;;25.22;67.46;100901.03;5036642;28;45342;-70
2023/08/21 03:12:07;;;;;;;;;6.00;6.00;;;;;25.30;67.59;100899.03;5037047;28;45381;-70
2023/08/21 03:14:33;;;;;;;;;4.67;4.00;;;;;25.34;67.35;100905.19;5037001;28;45504;-71
2023/08/21 03:16:58;;;;;;;;;6.67;6.00;;;;;25.38;67.33;100898.84;5036781;28;45556;-70
2023/08/21 03:19:24;;;;;;;;;7.00;6.00;;;;;25.43;67.16;100901.38;5035678;28;45475;-71
2023/08/21 03:21:50;;;;;;;;;5.67;5.67;;;;;25.42;67.49;100900.50;5036373;28;45464;-70
2023/08/21 03:24:15;;;;;;;;;21.00;18.67;;;;;25.32;67.43;100888.28;5035240;28;45320;-73
2023/08/21 03:26:41;;;;;;;;;25.33;24.33;;;;;25.38;67.40;100904.19;5036431;28;45314;-72
2023/08/21 03:29:06;;;;;;;;;7.67;6.67;;;;;25.30;67.19;100887.47;5037087;28;45367;-72
2023/08/21 03:31:32;;;;;;;;;7.00;6.67;;;;;25.33;67.38;100892.75;5035480;28;45519;-72
2023/08/21 03:33:58;;;;;;;;;7.00;6.00;;;;;25.30;67.39;100896.34;5035553;28;45463;-71
2023/08/21 03:36:33;;;;;;;;;6.67;6.33;;;;;25.28;67.72;100894.66;5035161;28;46953;-71
2023/08/21 03:39:01;;;;;;;;;7.00;6.00;;;;;25.32;67.54;100899.00;5036530;28;45410;-71
2023/08/21 03:41:27;;;;;;;;;7.00;6.00;;;;;25.32;67.63;100899.00;5036649;28;45244;-72
2023/08/21 03:43:53;;;;;;;;;5.67;5.33;;;;;25.34;67.64;100903.38;5036597;28;45489;-71
2023/08/21 03:46:19;;;;;;;;;5.00;5.00;;;;;25.30;67.61;100895.47;5036156;28;46032;-72
2023/08/21 03:48:45;;;;;;;;;8.67;6.33;;;;;25.33;67.18;100893.63;5036359;28;45374;-72
2023/08/21 03:51:11;;;;;;;;;5.00;5.00;;;;;25.29;67.01;100883.91;5035755;28;45321;-72
2023/08/21 03:53:36;;;;;;;;;6.67;6.00;;;;;25.35;67.30;100891.78;5036967;28;45310;-70
2023/08/21 03:56:02;;;;;;;;;5.33;5.00;;;;;25.38;67.28;100891.69;5036199;28;45326;-71
2023/08/21 03:58:28;;;;;;;;;7.00;5.33;;;;;25.38;67.16;100880.13;5036357;28;45617;-71
2023/08/21 04:00:54;;;;;;;;;4.67;4.67;;;;;25.37;66.99;100881.03;5036528;28;45302;-71
2023/08/21 04:03:20;;;;;;;;;4.67;4.67;;;;;25.34;66.71;100883.78;5038742;28;45376;-71
2023/08/21 04:05:46;;;;;;;;;6.00;5.00;;;;;25.29;67.34;100883.91;5038220;28;45531;-72
2023/08/21 04:08:12;;;;;;;;;6.00;4.33;;;;;25.28;67.05;100883.94;5039452;28;45489;-71
2023/08/21 04:10:38;;;;;;;;;3.00;3.00;;;;;25.26;67.28;100886.66;5038526;28;45432;-73
2023/08/21 04:13:05;;;;;;;;;6.00;6.00;;;;;25.28;67.62;100881.28;5039802;28;45521;-72
2023/08/21 04:15:31;;;;;;;;;9.33;8.67;;;;;25.29;67.61;100869.69;5039065;28;46122;-71
2023/08/21 04:17:57;;;;;;;;;8.00;8.00;;;;;25.29;68.06;100881.25;5039212;28;45480;-71
2023/08/21 04:20:23;;;;;;;;;6.00;6.00;;;;;25.32;67.56;100882.94;5038966;28;45479;-71
2023/08/21 04:22:49;;;;;;;;;9.00;7.00;;;;;25.27;67.43;100879.50;5039527;28;45462;-71
2023/08/21 04:25:15;;;;;;;;;5.00;5.00;;;;;25.25;67.78;100881.34;5039259;28;45613;-72
2023/08/21 04:27:41;;;;;;;;;6.33;6.00;;;;;25.16;67.76;100864.59;5039586;28;45380;-71
2023/08/21 04:30:07;;;;;;;;;6.00;6.00;;;;;25.25;67.70;100876.91;5038055;28;45522;-71
2023/08/21 04:32:33;;;;;;;;;6.00;6.00;;;;;25.23;67.78;100875.16;5039537;28;45236;-71
2023/08/21 04:34:59;;;;;;;;;5.00;5.00;;;;;25.13;67.74;100872.69;5039136;28;45395;-71
2023/08/21 04:37:24;;;;;;;;;6.67;5.67;;;;;25.20;67.80;100881.44;5037844;28;45244;-71
2023/08/21 04:39:51;;;;;;;;;5.33;5.33;;;;;25.17;67.55;100869.03;5039119;28;45581;-71
2023/08/21 04:42:17;;;;;;;;;6.33;6.00;;;;;25.16;67.87;100872.59;5039255;28;45509;-73
2023/08/21 04:44:43;;;;;;;;;7.00;6.00;;;;;25.18;68.16;100876.13;5038898;28;46173;-72
2023/08/21 04:47:28;;;;;;;;;6.00;6.00;;;;;25.16;68.02;100883.28;5038887;28;45456;-71
2023/08/21 04:49:55;;;;;;;;;8.33;8.00;;;;;25.15;68.10;100883.38;5039222;28;45293;-71
2023/08/21 04:52:21;;;;;;;;;6.00;5.67;;;;;25.16;67.90;100882.44;5038392;28;45421;-70
2023/08/21 04:54:48;;;;;;;;;5.33;5.33;;;;;25.11;67.93;100878.97;5038466;28;46158;-70
2023/08/21 04:57:14;;;;;;;;;7.67;7.00;;;;;25.06;68.30;100870.22;5038703;28;45431;-71
2023/08/21 04:59:41;;;;;;;;;6.33;5.33;;;;;25.07;69.00;100888.00;5039166;28;45494;-71
2023/08/21 05:02:07;;;;;;;;;5.33;5.00;;;;;24.93;69.20;100880.31;5038346;28;45617;-70
2023/08/21 05:04:33;;;;;;;;;6.00;6.00;;;;;24.85;68.83;100871.59;5038475;28;45281;-71
2023/08/21 05:07:00;;;;;;;;;7.33;7.00;;;;;24.85;69.35;100893.88;5038642;28;45457;-71
2023/08/21 05:09:25;;;;;;;;;6.33;6.33;;;;;24.80;69.57;100893.09;5038222;28;45495;-71
2023/08/21 05:11:51;;;;;;;;;6.33;6.00;;;;;24.75;69.75;100893.22;5038346;28;45482;-70
2023/08/21 05:14:19;;;;;;;;;7.33;6.67;;;;;24.81;69.05;100886.84;5035825;28;45363;-71
2023/08/21 05:16:45;;;;;;;;;5.67;5.33;;;;;24.88;68.54;100887.56;5038753;28;45225;-71
2023/08/21 05:19:11;;;;;;;;;7.00;6.00;;;;;24.87;68.74;100884.03;5038638;28;45406;-71
2023/08/21 05:21:37;;;;;;;;;6.67;6.67;;;;;24.92;68.79;100871.41;5037860;28;45413;-71
2023/08/21 05:24:03;;;;;;;;;7.00;6.33;;;;;24.99;68.92;100886.41;5038342;28;45503;-70
2023/08/21 05:26:31;;;;;;;;;7.00;7.00;;;;;25.02;68.47;100882.78;5038376;28;45390;-71
2023/08/21 05:28:57;;;;;;;;;6.00;5.00;;;;;25.05;68.56;100880.03;5038514;28;45423;-71
2023/08/21 05:31:22;;;;;;;;;7.00;6.00;;;;;25.08;68.54;100884.41;5038378;28;45454;-70
2023/08/21 05:33:48;;;;;;;;;7.00;7.00;;;;;24.91;69.02;100866.09;5038091;28;45226;-70
2023/08/21 05:36:14;;;;;;;;;4.00;3.00;;;;;24.84;69.06;100870.72;5038533;28;45360;-70
2023/08/21 05:38:40;;;;;;;;;8.00;7.00;;;;;24.88;69.23;100876.88;5038294;28;45161;-70
2023/08/21 05:41:06;;;;;;;;;7.33;7.00;;;;;24.89;69.41;100887.56;5038496;28;45241;-70
2023/08/21 05:43:31;;;;;;;;;6.67;6.00;;;;;24.89;69.46;100883.97;5038027;28;45568;-70
2023/08/21 05:45:57;;;;;;;;;6.00;6.00;;;;;24.92;69.03;100878.56;5037803;28;45453;-70
2023/08/21 05:48:23;;;;;;;;;7.33;7.33;;;;;24.99;68.68;100880.19;5038050;28;45320;-70
2023/08/21 05:50:52;;;;;;;;;8.00;7.00;;;;;24.97;69.42;100879.34;5037434;28;45509;-70
2023/08/21 05:53:18;;;;;;;;;8.00;7.33;;;;;25.03;69.33;100881.88;5038113;28;46103;-70
2023/08/21 05:55:44;;;;;;;;;7.00;7.00;;;;;25.14;68.94;100885.13;5037980;28;45610;-70
2023/08/21 05:58:09;;;;;;;;;5.33;5.33;;;;;25.29;68.30;100883.03;5037753;28;45533;-71
2023/08/21 06:00:35;;;;;;;;;5.00;5.00;;;;;25.47;68.06;100876.34;5038181;28;45247;-70
2023/08/21 06:03:01;;;;;;;;;7.33;7.00;;;;;25.52;67.35;100869.91;5037812;28;46137;-71
2023/08/21 06:05:27;;;;;;;;;4.00;3.00;;;;;25.74;66.96;100885.41;5037625;28;45485;-71
2023/08/21 06:07:52;;;;;;;;;6.67;6.67;;;;;25.69;66.90;100873.97;5037533;28;45288;-71
2023/08/21 06:10:18;;;;;;;;;5.00;5.00;;;;;25.84;66.88;100894.06;5038170;28;45293;-71
2023/08/21 06:12:44;;;;;;;;;6.33;6.00;;;;;25.94;66.51;100898.25;5036486;28;46127;-71
2023/08/21 06:15:10;;;;;;;;;5.67;5.00;;;;;25.94;66.11;100883.09;5037617;28;45417;-70
2023/08/21 06:17:37;;;;;;;;;6.33;5.00;;;;;26.06;65.94;100899.69;5037726;28;45373;-71
2023/08/21 06:20:05;;;;;;;;;6.00;6.00;;;;;26.10;65.57;100896.91;5037640;28;45252;-72
2023/08/21 06:22:32;;;;;;;;;5.67;5.67;;;;;26.11;65.71;100890.63;5036394;28;46066;-71
2023/08/21 06:24:59;;;;;;;;;5.67;5.00;;;;;26.18;65.39;100899.34;5035627;28;45529;-71
2023/08/21 06:27:24;;;;;;;;;7.00;7.00;;;;;26.04;65.73;100896.19;5035701;28;45520;-71
2023/08/21 06:29:50;;;;;;;;;6.67;5.67;;;;;25.95;65.72;100898.22;5036192;28;45885;-70
2023/08/21 06:32:15;;;;;;;;;6.67;6.67;;;;;25.88;66.04;100901.06;5039512;28;45895;-71
2023/08/21 06:34:41;;;;;;;;;6.33;6.33;;;;;25.89;65.85;100900.16;5047756;28;45308;-70
2023/08/21 06:37:07;;;;;;;;;8.00;7.00;;;;;26.02;65.61;100900.72;5041636;28;45476;-70
2023/08/21 06:39:34;;;;;;;;;6.00;6.00;;;;;26.11;65.60;100903.13;5045318;28;45442;-72
2023/08/21 06:42:00;;;;;;;;;6.33;6.33;;;;;26.18;65.39;100900.25;5046950;28;45346;-71
2023/08/21 06:44:26;;;;;;;;;6.00;6.00;;;;;26.27;65.53;100906.25;5045125;28;45344;-71
2023/08/21 06:46:52;;;;;;;;;6.33;5.67;;;;;26.30;65.25;100895.44;5046536;28;45588;-70
2023/08/21 06:49:18;;;;;;;;;4.00;3.67;;;;;26.31;64.74;100899.88;5041905;28;45348;-71
2023/08/21 06:51:45;;;;;;;;;6.00;6.00;;;;;26.29;64.50;100896.38;5035507;28;45466;-70
2023/08/21 06:54:10;;;;;;;;;8.33;6.00;;;;;26.34;64.91;100900.66;5036020;28;45597;-69
2023/08/21 06:56:36;;;;;;;;;4.67;4.67;;;;;26.38;64.84;100907.69;5035777;28;45355;-71
2023/08/21 06:59:02;;;;;;;;;5.33;5.00;;;;;26.49;64.08;100902.00;5033770;28;45375;-71
2023/08/21 07:01:28;;;;;;;;;6.00;6.00;;;;;26.54;63.83;100888.44;5036182;28;46038;-71
2023/08/21 07:03:54;;;;;;;;;13.67;11.33;;;;;26.48;64.45;100894.00;5036069;28;45320;-71
2023/08/21 07:06:20;;;;;;;;;7.33;7.33;;;;;26.65;64.30;100899.75;5036293;28;45493;-70
2023/08/21 07:08:46;;;;;;;;;6.00;6.00;;;;;26.82;64.15;100898.34;5034910;28;45471;-71
2023/08/21 07:11:12;;;;;;;;;5.33;5.00;;;;;26.92;63.57;100891.78;5034300;28;46391;-71
2023/08/21 07:13:38;;;;;;;;;5.00;5.00;;;;;27.10;62.41;100899.22;5036045;28;45375;-71
2023/08/21 07:16:05;;;;;;;;;4.00;4.00;;;;;27.21;62.24;100906.00;5036203;28;45338;-71
2023/08/21 07:18:35;;;;;;;;;7.00;6.00;;;;;27.28;61.98;100900.44;5035521;28;45537;-71
2023/08/21 07:21:04;;;;;;;;;4.00;4.00;;;;;27.37;61.37;100904.59;5035686;28;46066;-71
2023/08/21 07:23:30;;;;;;;;;4.33;4.00;;;;;27.48;60.98;100889.00;5035750;28;45529;-71
2023/08/21 07:25:58;;;;;;;;;5.00;5.00;;;;;27.48;60.40;100889.00;5035819;28;45459;-71
2023/08/21 07:28:23;;;;;;;;;5.00;4.67;;;;;27.51;61.17;100898.75;5033567;28;45407;-71
2023/08/21 07:30:55;;;;;;;;;5.00;4.33;;;;;27.82;60.04;100895.84;5035531;28;45854;-71
2023/08/21 07:33:21;;;;;;;;;4.67;4.67;;;;;28.04;59.98;100895.97;5034488;28;45460;-71
2023/08/21 07:35:47;;;;;;;;;4.00;3.67;;;;;28.20;59.90;100901.66;5027805;28;45628;-77
2023/08/21 07:38:13;;;;;;;;;7.00;6.00;;;;;28.25;58.17;100902.38;5037131;28;45579;-72
2023/08/21 07:40:39;;;;;;;;;5.00;4.00;;;;;28.35;57.37;100890.31;5038411;28;45415;-73
2023/08/21 07:43:04;;;;;;;;;4.00;4.00;;;;;28.53;57.32;100891.47;5039258;28;45493;-78
2023/08/21 07:45:30;;;;;;;;;2.00;2.00;;;;;28.67;57.44;100890.91;5039155;28;45513;-71
2023/08/21 07:47:56;;;;;;;;;2.33;2.00;;;;;28.78;55.17;100889.59;5038229;28;45378;-71
2023/08/21 07:50:21;;;;;;;;;3.00;2.00;;;;;28.76;55.64;100889.66;5039186;28;46033;-72
2023/08/21 07:52:47;;;;;;;;;2.00;2.00;;;;;29.12;54.38;100887.28;5038350;28;45556;-71
2023/08/21 07:55:12;;;;;;;;;2.67;2.00;;;;;29.33;53.59;100887.34;5039187;28;45484;-71
2023/08/21 07:57:38;;;;;;;;;2.00;1.00;;;;;29.73;53.83;100880.25;5039200;28;45398;-72
2023/08/21 08:00:08;;;;;;;;;3.00;1.33;;;;;30.08;52.62;100884.03;5038839;28;46068;-71
2023/08/21 08:02:33;;;;;;;;;3.00;3.00;;;;;30.28;52.81;100883.09;5038633;28;45314;-73
2023/08/21 08:04:59;;;;;;;;;2.33;2.33;;;;;30.31;51.42;100874.03;5036935;28;45523;-74
2023/08/21 08:07:26;;;;;;;;;5.00;4.00;;;;;30.51;51.42;100876.63;5038705;28;45402;-73
2023/08/21 08:09:51;;;;;;;;;4.33;3.00;;;;;30.73;50.89;100875.59;5038022;28;45581;-71
2023/08/21 08:12:17;;;;;;;;;2.00;2.00;;;;;30.78;49.66;100883.44;5037646;28;45510;-72
2023/08/21 08:14:43;;;;;;;;;2.33;2.00;;;;;30.65;50.65;100869.69;5038120;28;45632;-72
2023/08/21 08:17:08;;;;;;;;;4.00;3.00;;;;;30.78;50.16;100878.94;5037785;28;45745;-71
2023/08/21 08:19:34;;;;;;;;;2.00;1.00;;;;;30.85;50.10;100874.13;5037571;28;45499;-73
2023/08/21 08:21:59;;;;;;;;;2.00;1.67;;;;;30.76;49.78;100875.47;5036567;28;45491;-71
2023/08/21 08:24:25;;;;;;;;;4.33;4.33;;;;;30.71;50.11;100877.50;5038057;28;45423;-73
2023/08/21 08:26:51;;;;;;;;;2.00;2.00;;;;;30.64;49.52;100863.44;5038338;28;45276;-73
2023/08/21 08:29:16;;;;;;;;;3.00;2.67;;;;;30.60;50.04;100878.03;5037454;28;45883;-72
2023/08/21 08:31:42;;;;;;;;;3.67;3.67;;;;;30.65;50.38;100872.41;5037339;28;45423;-71
2023/08/21 08:34:07;;;;;;;;;4.67;4.00;;;;;30.62;49.70;100875.22;5038528;28;45524;-71
2023/08/21 08:36:33;;;;;;;;;3.00;2.00;;;;;30.53;50.69;100857.69;5038206;28;45458;-72
2023/08/21 08:38:59;;;;;;;;;4.00;4.00;;;;;30.81;50.68;100859.03;5038139;28;45173;-71
2023/08/21 08:41:44;;;;;;;;;6.33;6.33;;;;;31.12;49.52;100859.28;5037853;28;45262;-72
2023/08/21 08:44:12;;;;;;;;;3.00;3.00;;;;;31.46;48.87;100860.25;5038734;28;45312;-72
2023/08/21 08:46:38;;;;;;;;;2.33;2.33;;;;;31.61;48.57;100855.00;5037991;28;45489;-72
2023/08/21 08:49:04;;;;;;;;;4.33;4.00;;;;;31.51;48.38;100868.09;5037946;28;45878;-74
2023/08/21 08:51:31;;;;;;;;;3.00;3.00;;;;;31.39;48.21;100864.19;5038263;28;45288;-72
2023/08/21 08:53:58;;;;;;;;;3.33;2.67;;;;;31.58;48.30;100863.28;5037329;28;45416;-72
2023/08/21 08:56:24;;;;;;;;;5.33;4.33;;;;;31.66;48.28;100871.84;5039072;28;45308;-72
2023/08/21 08:58:50;;;;;;;;;2.67;2.33;;;;;31.81;47.24;100860.19;5037979;28;45505;-71
2023/08/21 09:01:16;;;;;;;;;4.67;3.00;;;;;31.63;47.91;100826.94;5036426;28;45272;-71
2023/08/21 09:03:44;;;;;;;;;5.33;4.00;;;;;32.15;47.45;100862.91;5036229;28;45488;-72
2023/08/21 09:06:10;;;;;;;;;7.67;7.00;;;;;32.12;46.42;100853.16;5037736;28;46187;-72
2023/08/21 09:08:35;;;;;;;;;5.00;4.67;;;;;32.21;47.41;100849.97;5037873;28;46068;-71
2023/08/21 09:11:03;;;;;;;;;4.00;3.67;;;;;32.42;47.57;100849.69;5038039;28;45431;-71
2023/08/21 09:13:31;;;;;;;;;3.00;3.00;;;;;32.75;46.62;100846.94;5038161;28;45224;-71
2023/08/21 09:15:56;;;;;;;;;4.00;4.00;;;;;32.66;44.93;100833.94;5038374;28;45240;-72
2023/08/21 09:18:22;;;;;;;;;5.33;5.00;;;;;32.81;45.62;100841.16;5036357;28;46713;-71
2023/08/21 09:20:48;;;;;;;;;5.00;4.33;;;;;32.97;45.74;100842.94;5037392;28;45444;-73
2023/08/21 09:23:16;;;;;;;;;6.00;3.67;;;;;32.89;45.00;100840.72;5036924;28;45268;-71
2023/08/21 09:25:46;;;;;;;;;4.67;4.00;;;;;32.83;45.26;100836.53;5017408;28;45382;-72
2023/08/21 09:28:12;;;;;;;;;6.00;5.00;;;;;33.02;45.62;100840.84;5017158;28;46114;-71
2023/08/21 09:30:52;;;;;;;;;4.00;4.00;;;;;33.17;44.94;100848.09;5032745;28;45586;-72
2023/08/21 09:33:19;;;;;;;;;2.33;2.33;;;;;32.49;45.75;100848.38;5017980;28;45450;-71
2023/08/21 09:35:45;;;;;;;;;1.33;1.33;;;;;32.89;46.09;100838.00;5033186;28;45535;-72
2023/08/21 09:38:10;;;;;;;;;1.33;1.33;;;;;33.20;45.37;100836.19;5017406;28;45300;-73
2023/08/21 09:40:41;;;;;;;;;6.67;6.67;;;;;33.50;44.99;100836.16;5032181;28;45548;-77
2023/08/21 09:43:09;;;;;;;;;2.67;2.67;;;;;33.64;44.07;100827.19;5017333;28;45332;-71
2023/08/21 09:45:35;;;;;;;;;2.33;1.33;;;;;33.92;43.99;100837.16;5017613;28;45344;-72
2023/08/21 09:48:01;;;;;;;;;3.33;3.33;;;;;34.18;43.92;100832.84;5016407;28;45474;-72
2023/08/21 09:50:29;;;;;;;;;7.67;7.00;;;;;34.53;42.60;100829.66;5015526;28;45440;-71
2023/08/21 09:52:57;;;;;;;;;4.00;3.00;;;;;34.66;41.99;100818.91;5035763;28;45702;-72
2023/08/21 09:55:23;;;;;;;;;3.33;3.00;;;;;34.62;41.06;100812.78;5036775;28;45505;-72
2023/08/21 09:57:58;;;;;;;;;39.25;34.75;;;;;34.51;42.72;100822.59;5036131;28;45967;-72
2023/08/21 10:00:28;;;;;;;;;4.00;4.00;;;;;34.70;41.61;100822.25;5035845;28;45370;-71
2023/08/21 10:02:58;;;;;;;;;2.33;2.33;;;;;34.82;41.86;100822.31;5035324;28;45627;-71
2023/08/21 10:05:24;;;;;;;;;4.67;4.33;;;;;34.73;42.19;100822.06;5036661;28;45431;-71
2023/08/21 10:07:50;;;;;;;;;5.00;3.33;;;;;35.23;41.36;100815.03;5036683;28;45988;-71
2023/08/21 10:10:17;;;;;;;;;4.33;3.00;;;;;35.68;41.12;100811.97;5036645;28;45444;-72
2023/08/21 10:12:43;;;;;;;;;4.00;3.00;;;;;36.11;39.79;100801.56;5036816;28;45283;-73
2023/08/21 10:15:09;;;;;;;;;4.00;4.00;;;;;36.35;40.35;100800.72;5036946;28;45304;-71
2023/08/21 10:17:36;;;;;;;;;2.00;2.00;;;;;36.48;38.71;100803.41;5036567;28;45476;-71
2023/08/21 10:20:09;;;;;;;;;4.00;3.00;;;;;36.37;38.85;100809.66;5036184;28;45626;-74
2023/08/21 10:23:01;;;;;;;;;1.00;1.00;;;;;36.39;39.05;100808.56;5035666;28;45495;-72
2023/08/21 10:25:27;;;;;;;;;3.00;3.00;;;;;36.47;38.30;100798.94;5032907;28;45532;-71
2023/08/21 10:27:55;;;;;;;;;4.00;3.00;;;;;36.59;39.16;100793.47;5035539;28;45445;-71
2023/08/21 10:30:24;;;;;;;;;2.00;2.00;;;;;37.09;37.91;100806.94;5035776;28;45451;-71
2023/08/21 10:32:51;;;;;;;;;3.00;3.00;;;;;37.56;37.75;100798.75;5035581;28;45348;-71
2023/08/21 10:35:25;;;;;;;;;7.00;5.00;;;;;38.19;37.67;100790.97;5035807;28;45600;-73
2023/08/21 10:38:12;;;;;;;;;2.00;2.00;;;;;38.73;36.06;100784.63;5035485;28;45444;-77
2023/08/21 10:40:41;;;;;;;;;3.33;2.00;;;;;39.30;36.11;100781.63;5040847;28;45487;-78
2023/08/21 10:43:46;;;;;;;;;3.00;2.00;;;;;39.94;34.17;100777.78;5037756;28;45344;-70
2023/08/21 10:46:12;;;;;;;;;3.33;2.00;;;;;40.39;34.00;100782.81;5032305;28;45638;-72
2023/08/21 10:48:39;;;;;;;;;3.00;3.00;;;;;40.32;33.35;100781.66;5034902;28;46126;-72
2023/08/21 10:51:08;;;;;;;;;3.00;2.00;;;;;40.20;34.25;100775.41;5035028;28;45419;-71
2023/08/21 10:53:35;;;;;;;;;4.00;3.00;;;;;39.95;35.00;100779.50;5035014;28;45387;-72
2023/08/21 10:56:05;;;;;;;;;3.33;3.00;;;;;39.92;34.91;100777.06;5037250;28;45428;-71
2023/08/21 10:58:46;;;;;;;;;3.67;3.33;;;;;39.98;34.82;100754.63;5036381;28;46280;-72
2023/08/21 11:01:15;;;;;;;;;2.67;2.67;;;;;40.18;33.87;100761.00;5035649;28;45491;-71
2023/08/21 11:03:45;;;;;;;;;4.00;3.33;;;;;40.35;34.19;100764.94;5036181;28;45348;-71
2023/08/21 11:06:10;;;;;;;;;4.67;3.33;;;;;40.39;33.89;100755.44;5036708;28;45440;-71
2023/08/21 11:08:36;;;;;;;;;4.33;3.67;;;;;40.53;34.25;100762.34;5035881;28;45328;-71
2023/08/21 11:11:04;;;;;;;;;3.33;3.33;;;;;40.92;33.29;100760.47;5036513;28;45266;-71
2023/08/21 11:13:31;;;;;;;;;5.67;5.67;;;;;40.98;33.84;100744.47;5038817;28;45339;-71
2023/08/21 11:16:04;;;;;;;;;6.33;5.67;;;;;41.01;33.76;100749.66;5039980;28;45162;-72
2023/08/21 11:18:35;;;;;;;;;5.67;5.00;;;;;40.73;33.48;100741.31;5038956;28;45425;-72
2023/08/21 11:21:09;;;;;;;;;7.33;7.33;;;;;40.67;33.62;100744.63;5037759;28;45489;-73
2023/08/21 11:23:39;;;;;;;;;3.33;3.33;;;;;40.63;34.13;100740.44;5039543;28;45490;-72